createdAt,value
2018-12-13T00:00:26.955Z,6.35
2018-12-13T00:02:54.427Z,7.00
2018-12-13T00:05:21.958Z,8.05
2018-12-13T00:07:49.487Z,7.75
2018-12-13T00:10:17.028Z,8.95
2018-12-13T00:12:44.536Z,8.05
2018-12-13T00:15:12.003Z,7.45
2018-12-13T00:17:39.456Z,8.50
2018-12-13T00:20:07.034Z,8.90
2018-12-13T00:22:34.480Z,7.80
2018-12-13T00:25:02.028Z,8.03
2018-12-13T00:27:29.488Z,8.48
2018-12-13T00:29:56.973Z,8.03
2018-12-13T00:32:24.504Z,10.08
2018-12-13T00:34:51.988Z,7.65
2018-12-13T00:37:19.496Z,8.35
2018-12-13T00:39:47.009Z,7.55
2018-12-13T00:42:14.468Z,7.85
2018-12-13T00:44:41.970Z,8.03
2018-12-13T00:47:09.444Z,7.67
2018-12-13T00:49:36.903Z,7.28
2018-12-13T00:52:04.393Z,8.43
2018-12-13T00:54:31.847Z,8.18
2018-12-13T00:56:59.357Z,9.13
2018-12-13T00:59:26.804Z,8.15
2018-12-13T01:01:54.473Z,8.83
2018-12-13T01:04:21.956Z,7.90
2018-12-13T01:06:49.420Z,10.10
2018-12-13T01:09:17.120Z,8.50
2018-12-13T01:11:44.805Z,8.10
2018-12-13T01:14:12.261Z,8.78
2018-12-13T01:16:39.718Z,9.73
2018-12-13T01:19:07.270Z,8.63
2018-12-13T01:21:34.841Z,8.98
2018-12-13T01:24:02.351Z,10.10
2018-12-13T01:26:29.856Z,9.30
2018-12-13T01:28:57.378Z,9.28
2018-12-13T01:31:24.855Z,9.60
2018-12-13T01:33:52.348Z,9.05
2018-12-13T01:36:19.821Z,10.82
2018-12-13T01:38:47.263Z,10.40
2018-12-13T01:41:14.792Z,9.68
2018-12-13T01:43:42.295Z,10.10
2018-12-13T01:46:09.729Z,10.40
2018-12-13T01:48:37.189Z,10.23
2018-12-13T01:51:04.642Z,9.78
2018-12-13T01:53:32.178Z,11.75
2018-12-13T01:55:59.640Z,10.60
2018-12-13T01:58:27.105Z,11.40
2018-12-13T02:00:54.555Z,10.88
2018-12-13T02:03:22.093Z,10.98
2018-12-13T02:05:49.554Z,10.93
2018-12-13T02:08:17.090Z,11.78
2018-12-13T02:10:44.594Z,12.03
2018-12-13T02:13:12.089Z,13.45
2018-12-13T02:15:39.566Z,12.00
2018-12-13T02:18:07.033Z,12.15
2018-12-13T02:20:34.480Z,12.95
2018-12-13T02:23:01.981Z,12.03
2018-12-13T02:25:29.505Z,11.80
2018-12-13T02:27:56.973Z,13.55
2018-12-13T02:30:24.425Z,12.53
2018-12-13T02:32:51.895Z,14.30
2018-12-13T02:35:19.391Z,13.62
2018-12-13T02:37:46.846Z,13.25
2018-12-13T02:40:14.349Z,14.43
2018-12-13T02:42:41.824Z,12.78
2018-12-13T02:45:09.339Z,14.83
2018-12-13T02:47:36.809Z,12.90
2018-12-13T02:50:05.054Z,13.83
2018-12-13T02:52:32.531Z,12.73
2018-12-13T02:55:00.885Z,12.28
2018-12-13T02:57:28.332Z,12.15
2018-12-13T02:59:55.788Z,12.60
2018-12-13T03:02:23.279Z,13.98
2018-12-13T03:04:50.713Z,13.03
2018-12-13T03:07:18.185Z,11.70
2018-12-13T03:09:45.728Z,9.43
2018-12-13T03:12:13.184Z,13.20
2018-12-13T03:14:40.686Z,12.80
2018-12-13T03:17:08.168Z,11.18
2018-12-13T03:19:35.659Z,11.80
2018-12-13T03:22:03.171Z,12.65
2018-12-13T03:24:30.691Z,12.15
2018-12-13T03:26:58.130Z,12.20
2018-12-13T03:29:25.636Z,12.20
2018-12-13T03:31:53.163Z,11.48
2018-12-13T03:34:20.651Z,10.23
2018-12-13T03:36:48.156Z,12.33
2018-12-13T03:39:15.636Z,10.65
2018-12-13T03:41:43.143Z,9.63
2018-12-13T03:44:10.641Z,10.88
2018-12-13T03:46:38.132Z,11.53
2018-12-13T03:49:05.577Z,10.63
2018-12-13T03:51:33.286Z,11.73
2018-12-13T03:54:00.733Z,10.85
2018-12-13T03:56:28.228Z,9.53
2018-12-13T03:58:55.698Z,11.73
2018-12-13T04:01:23.319Z,11.35
2018-12-13T04:03:50.786Z,10.82
2018-12-13T04:06:18.296Z,10.43
2018-12-13T04:08:45.803Z,11.53
2018-12-13T04:11:13.288Z,10.90
2018-12-13T04:13:40.756Z,10.40
2018-12-13T04:16:08.218Z,10.25
2018-12-13T04:18:35.702Z,9.78
2018-12-13T04:21:03.204Z,8.80
2018-12-13T04:23:30.801Z,11.53
2018-12-13T04:25:58.320Z,11.45
2018-12-13T04:28:25.778Z,12.15
2018-12-13T04:30:53.277Z,11.65
2018-12-13T04:33:20.731Z,10.53
2018-12-13T04:35:48.227Z,10.93
2018-12-13T04:38:15.713Z,10.90
2018-12-13T04:40:43.215Z,11.80
2018-12-13T04:43:10.667Z,11.68
2018-12-13T04:45:38.138Z,10.78
2018-12-13T04:48:05.649Z,10.63
2018-12-13T04:50:33.146Z,10.28
2018-12-13T04:53:00.656Z,10.60
2018-12-13T04:55:28.113Z,9.78
2018-12-13T04:57:55.614Z,10.18
2018-12-13T05:00:23.080Z,10.43
2018-12-13T05:02:50.551Z,10.88
2018-12-13T05:05:18.048Z,9.55
2018-12-13T05:07:45.548Z,11.48
2018-12-13T05:10:20.895Z,10.53
2018-12-13T05:12:48.408Z,8.95
2018-12-13T05:15:15.865Z,10.25
2018-12-13T05:17:43.331Z,11.28
2018-12-13T05:20:10.782Z,11.18
2018-12-13T05:22:38.271Z,10.28
2018-12-13T05:25:05.712Z,11.80
2018-12-13T05:27:33.230Z,10.25
2018-12-13T05:30:00.686Z,11.28
2018-12-13T05:32:28.156Z,10.72
2018-12-13T05:34:55.618Z,6.53
2018-12-13T05:37:23.097Z,11.30
2018-12-13T05:39:50.552Z,12.28
2018-12-13T05:42:17.996Z,11.15
2018-12-13T05:44:45.436Z,11.18
2018-12-13T05:47:12.884Z,10.98
2018-12-13T05:49:40.327Z,12.35
2018-12-13T05:52:07.765Z,11.28
2018-12-13T05:54:35.247Z,11.55
2018-12-13T05:57:02.724Z,10.45
2018-12-13T05:59:30.148Z,12.10
2018-12-13T06:01:57.602Z,11.33
2018-12-13T06:04:25.049Z,11.48
2018-12-13T06:06:52.481Z,11.00
2018-12-13T06:09:19.908Z,12.30
2018-12-13T06:11:47.365Z,12.07
2018-12-13T06:14:14.839Z,14.05
2018-12-13T06:16:42.336Z,13.98
2018-12-13T06:19:09.788Z,13.88
2018-12-13T06:21:37.245Z,15.88
2018-12-13T06:24:04.663Z,12.80
2018-12-13T06:26:32.106Z,12.65
2018-12-13T06:28:59.577Z,12.70
2018-12-13T06:31:27.030Z,12.90
2018-12-13T06:33:54.489Z,13.60
2018-12-13T06:36:21.953Z,12.68
2018-12-13T06:38:49.381Z,11.73
2018-12-13T06:41:16.825Z,12.13
2018-12-13T06:43:44.287Z,12.63
2018-12-13T06:46:11.780Z,11.80
2018-12-13T06:48:39.249Z,12.18
2018-12-13T06:51:06.698Z,12.78
2018-12-13T06:53:34.180Z,11.97
2018-12-13T06:56:01.679Z,11.97
2018-12-13T06:58:29.187Z,13.78
2018-12-13T07:00:56.620Z,11.30
2018-12-13T07:03:24.048Z,14.00
2018-12-13T07:05:51.504Z,12.33
2018-12-13T07:08:18.965Z,12.60
2018-12-13T07:10:46.408Z,12.75
2018-12-13T07:13:13.860Z,12.47
2018-12-13T07:15:41.440Z,10.50
2018-12-13T07:18:08.896Z,11.70
2018-12-13T07:20:36.335Z,12.40
2018-12-13T07:23:03.853Z,12.63
2018-12-13T07:25:31.283Z,12.28
2018-12-13T07:27:58.728Z,12.13
2018-12-13T07:30:26.176Z,13.90
2018-12-13T07:32:53.636Z,12.88
2018-12-13T07:35:21.076Z,12.47
2018-12-13T07:37:48.533Z,13.38
2018-12-13T07:40:15.970Z,12.20
2018-12-13T07:42:43.400Z,13.58
2018-12-13T07:45:10.836Z,11.50
2018-12-13T07:47:38.295Z,12.70
2018-12-13T07:50:07.110Z,12.20
2018-12-13T07:52:34.626Z,14.15
2018-12-13T07:55:02.099Z,12.70
2018-12-13T07:57:29.544Z,15.70
2018-12-13T07:59:57.012Z,13.70
2018-12-13T08:02:24.453Z,13.75
2018-12-13T08:04:51.924Z,14.83
2018-12-13T08:07:19.371Z,13.78
2018-12-13T08:09:46.822Z,15.88
2018-12-13T08:12:14.292Z,15.25
2018-12-13T08:14:41.721Z,15.35
2018-12-13T08:17:09.158Z,12.45
2018-12-13T08:19:36.590Z,15.18
2018-12-13T08:22:04.110Z,13.43
2018-12-13T08:24:31.601Z,15.18
2018-12-13T08:26:59.049Z,16.77
2018-12-13T08:29:26.462Z,17.42
2018-12-13T08:31:53.999Z,13.88
2018-12-13T08:34:21.438Z,13.72
2018-12-13T08:36:49.172Z,8.58
2018-12-13T08:39:16.661Z,14.90
2018-12-13T08:41:44.178Z,13.48
2018-12-13T08:44:11.632Z,15.72
2018-12-13T08:46:39.080Z,18.55
2018-12-13T08:49:06.565Z,16.15
2018-12-13T08:51:34.024Z,16.20
2018-12-13T08:54:01.460Z,15.10
2018-12-13T08:56:28.944Z,13.90
2018-12-13T08:58:56.376Z,16.85
2018-12-13T09:01:23.855Z,15.45
2018-12-13T09:03:51.382Z,12.15
2018-12-13T09:06:18.836Z,17.05
2018-12-13T09:08:46.342Z,15.75
2018-12-13T09:11:13.808Z,15.43
2018-12-13T09:13:41.307Z,16.60
2018-12-13T09:16:08.744Z,15.20
2018-12-13T09:18:36.234Z,14.30
2018-12-13T09:21:03.764Z,15.23
2018-12-13T09:23:31.216Z,15.45
2018-12-13T09:25:58.705Z,16.35
2018-12-13T09:28:26.152Z,15.85
2018-12-13T09:30:53.596Z,11.93
2018-12-13T09:33:21.041Z,14.03
2018-12-13T09:35:48.505Z,15.70
2018-12-13T09:38:16.349Z,15.95
2018-12-13T09:40:45.876Z,14.55
2018-12-13T09:43:13.331Z,15.55
2018-12-13T09:45:41.145Z,15.98
2018-12-13T09:48:08.615Z,15.03
2018-12-13T09:50:36.082Z,16.02
2018-12-13T09:53:03.606Z,14.28
2018-12-13T09:55:31.026Z,17.35
2018-12-13T09:57:58.576Z,16.25
2018-12-13T10:00:26.073Z,15.95
2018-12-13T10:02:53.510Z,11.45
2018-12-13T10:05:21.221Z,15.25
2018-12-13T10:07:48.738Z,12.68
2018-12-13T10:10:16.171Z,15.00
2018-12-13T10:12:43.680Z,16.40
2018-12-13T10:15:11.152Z,15.48
2018-12-13T10:17:38.601Z,15.72
2018-12-13T10:20:06.104Z,16.32
2018-12-13T10:22:33.556Z,16.02
2018-12-13T10:25:00.999Z,15.38
2018-12-13T10:27:28.503Z,14.33
2018-12-13T10:29:55.964Z,14.68
2018-12-13T10:32:23.433Z,7.90
2018-12-13T10:34:50.914Z,13.95
2018-12-13T10:37:18.375Z,13.30
2018-12-13T10:39:45.938Z,13.58
2018-12-13T10:42:13.454Z,13.13
2018-12-13T10:44:41.857Z,12.95
2018-12-13T10:47:09.295Z,14.65
2018-12-13T10:49:36.824Z,12.88
2018-12-13T10:52:04.332Z,10.70
2018-12-13T10:54:31.808Z,9.23
2018-12-13T10:56:59.362Z,12.95
2018-12-13T10:59:26.805Z,12.00
2018-12-13T11:02:00.098Z,11.30
2018-12-13T11:04:27.601Z,12.90
2018-12-13T11:06:55.079Z,12.73
2018-12-13T11:09:22.517Z,11.20
2018-12-13T11:11:49.966Z,13.70
2018-12-13T11:14:17.461Z,11.40
2018-12-13T11:16:44.910Z,11.10
2018-12-13T11:19:12.481Z,12.15
2018-12-13T11:21:39.981Z,11.22
2018-12-13T11:24:07.422Z,13.40
2018-12-13T11:26:34.891Z,12.75
2018-12-13T11:29:14.208Z,14.03
2018-12-13T11:31:42.006Z,14.30
2018-12-13T11:34:09.449Z,15.68
2018-12-13T11:36:36.924Z,15.72
2018-12-13T11:39:05.853Z,12.95
2018-12-13T11:41:33.511Z,13.98
2018-12-13T11:44:01.043Z,14.10
2018-12-13T11:46:28.499Z,14.45
2018-12-13T11:48:55.996Z,13.40
2018-12-13T11:51:23.446Z,14.60
2018-12-13T11:53:51.519Z,16.25
2018-12-13T11:56:19.074Z,14.47
2018-12-13T11:58:46.787Z,13.20
2018-12-13T12:01:14.398Z,13.53
2018-12-13T12:03:41.837Z,15.70
2018-12-13T12:06:09.288Z,12.53
2018-12-13T12:08:36.741Z,13.05
2018-12-13T12:11:04.252Z,8.65
2018-12-13T12:13:31.708Z,11.90
2018-12-13T12:15:59.201Z,13.50
2018-12-13T12:18:26.696Z,13.85
2018-12-13T12:20:54.126Z,13.83
2018-12-13T12:23:21.601Z,15.20
2018-12-13T12:25:49.153Z,13.32
2018-12-13T12:28:16.641Z,10.65
2018-12-13T12:30:44.147Z,14.60
2018-12-13T12:33:11.588Z,15.32
2018-12-13T12:35:39.075Z,13.38
2018-12-13T12:38:06.568Z,12.28
2018-12-13T12:40:34.029Z,11.78
2018-12-13T12:43:01.484Z,13.25
2018-12-13T12:45:28.947Z,12.50
2018-12-13T12:47:56.441Z,10.95
2018-12-13T12:50:23.908Z,12.70
2018-12-13T12:52:51.360Z,10.95
2018-12-13T12:55:18.822Z,14.63
2018-12-13T12:57:46.283Z,15.78
2018-12-13T13:00:13.756Z,14.55
2018-12-13T13:02:41.754Z,10.55
2018-12-13T13:05:09.263Z,15.63
2018-12-13T13:07:36.714Z,12.70
2018-12-13T13:10:05.031Z,15.23
2018-12-13T13:12:32.493Z,14.47
2018-12-13T13:14:59.934Z,12.03
2018-12-13T13:17:27.406Z,13.78
2018-12-13T13:19:54.874Z,12.65
2018-12-13T13:22:22.379Z,11.93
2018-12-13T13:24:49.861Z,10.40
2018-12-13T13:27:17.307Z,14.45
2018-12-13T13:29:44.784Z,13.32
2018-12-13T13:32:12.240Z,11.30
2018-12-13T13:34:39.721Z,14.40
2018-12-13T13:37:07.165Z,11.97
2018-12-13T13:39:34.635Z,13.40
2018-12-13T13:42:02.076Z,12.82
2018-12-13T13:44:31.498Z,9.85
2018-12-13T13:46:58.932Z,8.65
2018-12-13T13:49:26.367Z,11.35
2018-12-13T13:51:53.864Z,12.15
2018-12-13T13:54:21.384Z,13.08
2018-12-13T13:56:48.909Z,12.58
2018-12-13T13:59:16.348Z,12.40
2018-12-13T14:01:43.784Z,14.35
2018-12-13T14:04:11.245Z,13.25
2018-12-13T14:06:38.694Z,15.03
2018-12-13T14:09:07.165Z,12.95
2018-12-13T14:11:34.612Z,13.83
2018-12-13T14:14:02.222Z,14.50
2018-12-13T14:16:29.711Z,13.62
2018-12-13T14:18:57.167Z,13.00
2018-12-13T14:21:24.624Z,12.25
2018-12-13T14:23:52.156Z,12.07
2018-12-13T14:26:19.610Z,10.53
2018-12-13T14:28:47.128Z,9.13
2018-12-13T14:31:14.656Z,12.28
2018-12-13T14:33:42.142Z,12.28
2018-12-13T14:36:09.614Z,10.70
2018-12-13T14:38:37.102Z,12.95
2018-12-13T14:41:04.550Z,13.10
2018-12-13T14:43:32.047Z,12.70
2018-12-13T14:45:59.636Z,11.65
2018-12-13T14:48:27.084Z,12.78
2018-12-13T14:50:54.530Z,12.60
2018-12-13T14:53:22.005Z,13.62
2018-12-13T14:55:49.460Z,14.00
2018-12-13T14:58:16.948Z,13.75
2018-12-13T15:00:44.397Z,13.20
2018-12-13T15:03:11.888Z,13.50
2018-12-13T15:05:39.310Z,13.28
2018-12-13T15:08:06.812Z,14.28
2018-12-13T15:10:34.230Z,12.70
2018-12-13T15:13:01.714Z,11.08
2018-12-13T15:15:29.180Z,13.00
2018-12-13T15:17:56.656Z,11.22
2018-12-13T15:20:24.154Z,11.90
2018-12-13T15:22:51.596Z,12.82
2018-12-13T15:25:19.066Z,11.48
2018-12-13T15:27:46.520Z,13.78
2018-12-13T15:30:13.998Z,13.80
2018-12-13T15:32:41.445Z,12.90
2018-12-13T15:35:08.950Z,13.70
2018-12-13T15:37:36.458Z,12.68
2018-12-13T15:40:04.055Z,12.60
2018-12-13T15:42:31.512Z,12.65
2018-12-13T15:44:59.273Z,10.45
2018-12-13T15:47:26.768Z,13.13
2018-12-13T15:49:54.207Z,12.03
2018-12-13T15:52:21.679Z,12.53
2018-12-13T15:54:49.159Z,13.30
2018-12-13T15:57:16.628Z,9.00
2018-12-13T15:59:44.079Z,12.13
2018-12-13T16:02:11.515Z,14.03
2018-12-13T16:04:38.990Z,14.25
2018-12-13T16:07:06.436Z,13.48
2018-12-13T16:09:33.888Z,14.03
2018-12-13T16:12:01.339Z,14.30
2018-12-13T16:14:29.491Z,14.45
2018-12-13T16:16:57.567Z,15.03
2018-12-13T16:19:25.235Z,13.55
2018-12-13T16:21:52.833Z,12.53
2018-12-13T16:24:20.341Z,13.75
2018-12-13T16:26:47.865Z,15.55
2018-12-13T16:29:15.304Z,13.25
2018-12-13T16:31:42.779Z,15.05
2018-12-13T16:34:10.321Z,13.83
2018-12-13T16:36:37.818Z,13.50
2018-12-13T16:39:07.742Z,12.78
2018-12-13T16:41:35.294Z,12.80
2018-12-13T16:44:02.747Z,11.85
2018-12-13T16:46:30.223Z,12.53
2018-12-13T16:48:57.775Z,14.45
2018-12-13T16:51:25.221Z,11.20
2018-12-13T16:53:52.714Z,11.73
2018-12-13T16:56:20.189Z,13.62
2018-12-13T16:58:47.712Z,12.85
2018-12-13T17:01:15.176Z,13.08
2018-12-13T17:03:42.708Z,13.70
2018-12-13T17:06:10.213Z,13.68
2018-12-13T17:08:37.955Z,14.85
2018-12-13T17:11:05.652Z,15.43
2018-12-13T17:13:33.165Z,17.15
2018-12-13T17:16:00.704Z,13.13
2018-12-13T17:18:28.157Z,13.32
2018-12-13T17:20:56.234Z,14.73
2018-12-13T17:23:23.767Z,16.27
2018-12-13T17:25:51.215Z,13.62
2018-12-13T17:28:18.676Z,14.00
2018-12-13T17:30:46.149Z,14.78
2018-12-13T17:33:13.591Z,15.93
2018-12-13T17:35:41.089Z,15.38
2018-12-13T17:38:08.548Z,14.35
2018-12-13T17:40:36.010Z,13.18
2018-12-13T17:43:03.461Z,14.90
2018-12-13T17:45:32.664Z,14.35
2018-12-13T17:48:00.215Z,15.38
2018-12-13T17:50:27.718Z,14.95
2018-12-13T17:52:55.174Z,16.15
2018-12-13T17:55:23.742Z,14.68
2018-12-13T17:57:53.272Z,17.32
2018-12-13T18:00:30.868Z,16.37
2018-12-13T18:02:58.392Z,17.15
2018-12-13T18:05:26.040Z,15.60
2018-12-13T18:07:53.540Z,14.63
2018-12-13T18:10:21.104Z,14.73
2018-12-13T18:12:48.651Z,15.85
2018-12-13T18:15:16.949Z,15.08
2018-12-13T18:17:44.703Z,15.20
2018-12-13T18:20:12.307Z,14.38
2018-12-13T18:22:39.894Z,16.60
2018-12-13T18:25:07.507Z,15.40
2018-12-13T18:27:34.971Z,18.45
2018-12-13T18:30:02.497Z,14.83
2018-12-13T18:32:29.979Z,15.00
2018-12-13T18:34:57.438Z,14.58
2018-12-13T18:37:24.960Z,16.87
2018-12-13T18:39:52.713Z,15.05
2018-12-13T18:42:20.167Z,15.70
2018-12-13T18:44:47.662Z,16.32
2018-12-13T18:47:15.124Z,17.50
2018-12-13T18:49:42.601Z,17.20
2018-12-13T18:52:10.118Z,16.60
2018-12-13T18:54:37.561Z,18.55
2018-12-13T18:57:05.164Z,19.45
2018-12-13T18:59:32.636Z,17.42
2018-12-13T19:02:00.106Z,15.95
2018-12-13T19:04:27.690Z,18.82
2018-12-13T19:06:55.230Z,16.95
2018-12-13T19:09:22.728Z,17.98
2018-12-13T19:11:50.238Z,18.85
2018-12-13T19:14:17.748Z,20.05
2018-12-13T19:16:45.459Z,18.95
2018-12-13T19:19:12.957Z,15.38
2018-12-13T19:21:40.461Z,16.50
2018-12-13T19:24:08.177Z,17.73
2018-12-13T19:26:35.824Z,18.50
2018-12-13T19:29:03.300Z,16.37
2018-12-13T19:31:31.367Z,17.35
2018-12-13T19:33:58.822Z,18.02
2018-12-13T19:36:26.287Z,17.80
2018-12-13T19:38:53.765Z,18.25
2018-12-13T19:41:21.237Z,19.60
2018-12-13T19:43:48.717Z,19.30
2018-12-13T19:46:16.163Z,21.73
2018-12-13T19:48:43.706Z,19.20
2018-12-13T19:51:11.228Z,19.85
2018-12-13T19:53:38.710Z,21.05
2018-12-13T19:56:06.173Z,21.30
2018-12-13T19:58:33.684Z,19.85
2018-12-13T20:01:01.267Z,20.85
2018-12-13T20:03:28.743Z,18.85
2018-12-13T20:05:56.192Z,17.60
2018-12-13T20:08:23.665Z,17.77
2018-12-13T20:10:54.636Z,20.68
2018-12-13T20:13:20.720Z,25.10
2018-12-13T20:15:48.223Z,20.55
2018-12-13T20:18:15.766Z,18.60
2018-12-13T20:20:43.238Z,18.80
2018-12-13T20:23:10.798Z,18.85
2018-12-13T20:25:38.293Z,19.92
2018-12-13T20:28:05.818Z,17.32
2018-12-13T20:30:33.300Z,16.05
2018-12-13T20:33:00.760Z,17.92
2018-12-13T20:35:28.376Z,17.12
2018-12-13T20:37:55.872Z,16.60
2018-12-13T20:40:23.336Z,17.12
2018-12-13T20:42:50.825Z,14.10
2018-12-13T20:45:18.280Z,18.60
2018-12-13T20:47:45.711Z,14.23
2018-12-13T20:50:13.337Z,15.80
2018-12-13T20:52:41.005Z,14.83
2018-12-13T20:55:08.711Z,15.55
2018-12-13T20:57:36.141Z,14.73
2018-12-13T21:00:07.271Z,16.52
2018-12-13T21:02:34.751Z,15.83
2018-12-13T21:05:02.284Z,16.25
2018-12-13T21:07:33.627Z,12.33
2018-12-13T21:10:01.300Z,15.93
2018-12-13T21:12:28.998Z,18.12
2018-12-13T21:14:56.455Z,15.98
2018-12-13T21:17:23.896Z,17.98
2018-12-13T21:19:51.728Z,17.82
2018-12-13T21:22:19.189Z,16.25
2018-12-13T21:24:46.636Z,7.80
2018-12-13T21:27:14.224Z,15.13
2018-12-13T21:29:41.871Z,16.48
2018-12-13T21:32:09.368Z,16.70
2018-12-13T21:34:36.853Z,15.15
2018-12-13T21:37:04.361Z,15.40
2018-12-13T21:39:31.820Z,18.23
2018-12-13T21:41:59.337Z,17.62
2018-12-13T21:44:26.796Z,17.50
2018-12-13T21:46:54.269Z,15.90
2018-12-13T21:49:21.737Z,12.20
2018-12-13T21:51:49.288Z,13.62
2018-12-13T21:54:16.819Z,16.52
2018-12-13T21:56:44.710Z,16.23
2018-12-13T21:59:12.189Z,11.97
2018-12-13T22:01:39.781Z,15.03
2018-12-13T22:04:07.263Z,13.68
2018-12-13T22:06:34.718Z,14.18
2018-12-13T22:09:02.175Z,14.33
2018-12-13T22:11:29.617Z,15.90
2018-12-13T22:13:57.124Z,16.07
2018-12-13T22:16:24.570Z,17.25
2018-12-13T22:18:52.042Z,14.87
2018-12-13T22:21:19.520Z,18.30
2018-12-13T22:23:49.000Z,18.45
2018-12-13T22:26:16.448Z,16.77
2018-12-13T22:28:43.910Z,16.30
2018-12-13T22:31:11.396Z,14.43
2018-12-13T22:33:38.925Z,17.25
2018-12-13T22:36:06.494Z,16.50
2018-12-13T22:38:33.945Z,17.07
2018-12-13T22:41:01.397Z,16.12
2018-12-13T22:43:28.863Z,17.25
2018-12-13T22:45:56.401Z,16.32
2018-12-13T22:48:23.949Z,14.85
2018-12-13T22:50:51.510Z,15.88
2018-12-13T22:53:18.989Z,16.42
2018-12-13T22:55:46.864Z,13.62
2018-12-13T22:58:14.324Z,12.55
2018-12-13T23:00:42.093Z,12.82
2018-12-13T23:03:09.533Z,13.78
2018-12-13T23:05:37.881Z,14.15
2018-12-13T23:10:52.977Z,18.65
2018-12-13T23:13:20.522Z,16.10
2018-12-13T23:15:48.048Z,14.93
2018-12-13T23:18:16.609Z,15.30
2018-12-13T23:20:44.068Z,17.30
2018-12-13T23:23:11.540Z,16.50
2018-12-13T23:25:45.159Z,18.27
2018-12-13T23:28:12.617Z,16.30
2018-12-13T23:30:40.547Z,16.17
2018-12-13T23:33:08.033Z,17.73
2018-12-13T23:35:35.489Z,16.60
2018-12-13T23:38:02.974Z,12.90
2018-12-13T23:40:30.444Z,17.30
2018-12-13T23:42:57.896Z,15.03
2018-12-13T23:45:25.348Z,16.70
2018-12-13T23:47:52.793Z,18.67
2018-12-13T23:50:20.232Z,16.75
2018-12-13T23:52:47.672Z,19.82
2018-12-13T23:55:15.137Z,18.70
2018-12-13T23:57:42.651Z,17.60
